createdAt,value
2022-11-16T00:02:35.000Z,9.54
2022-11-16T00:07:35.000Z,8.9
2022-11-16T00:12:35.000Z,10.81
2022-11-16T00:17:34.000Z,13.39
2022-11-16T00:22:34.000Z,9.78
2022-11-16T00:27:35.000Z,9.7
2022-11-16T00:32:35.000Z,9.44
2022-11-16T00:37:34.000Z,10.4
2022-11-16T00:42:34.000Z,10.33
2022-11-16T00:47:35.000Z,10.31
2022-11-16T00:52:35.000Z,10.27
2022-11-16T00:57:34.000Z,10.23
2022-11-16T01:02:35.000Z,10.23
2022-11-16T01:07:35.000Z,10.58
2022-11-16T01:12:34.000Z,11.55
2022-11-16T01:17:35.000Z,12.09
2022-11-16T01:22:35.000Z,12.07
2022-11-16T01:27:35.000Z,11.12
2022-11-16T01:32:35.000Z,11.94
2022-11-16T01:37:34.000Z,12.3
2022-11-16T01:42:34.000Z,12.55
2022-11-16T01:47:35.000Z,10.39
2022-11-16T01:52:35.000Z,10.4
2022-11-16T01:57:34.000Z,10.69
2022-11-16T02:02:34.000Z,11.1
2022-11-16T02:07:35.000Z,10.19
2022-11-16T02:12:35.000Z,10.31
2022-11-16T02:17:34.000Z,10.31
2022-11-16T02:22:34.000Z,10.94
2022-11-16T02:27:35.000Z,10.71
2022-11-16T02:32:35.000Z,10.51
2022-11-16T02:37:35.000Z,10.05
2022-11-16T02:42:35.000Z,10.08
2022-11-16T02:47:34.000Z,10.55
2022-11-16T02:52:34.000Z,10.19
2022-11-16T02:57:34.000Z,10.68
2022-11-16T03:02:34.000Z,9.93
2022-11-16T03:07:35.000Z,10.08
2022-11-16T03:12:34.000Z,9.92
2022-11-16T03:17:35.000Z,10.14
2022-11-16T03:22:34.000Z,9.88
2022-11-16T03:27:34.000Z,10.27
2022-11-16T03:32:34.000Z,10.27
2022-11-16T03:37:34.000Z,10.48
2022-11-16T03:42:35.000Z,10.79
2022-11-16T03:47:34.000Z,11.01
2022-11-16T03:52:35.000Z,11.14
2022-11-16T03:57:34.000Z,10.79
2022-11-16T04:02:35.000Z,11.18
2022-11-16T04:07:34.000Z,10.84
2022-11-16T04:12:35.000Z,10.72
2022-11-16T04:17:35.000Z,11.15
2022-11-16T04:22:35.000Z,10.7
2022-11-16T04:27:34.000Z,11.48
2022-11-16T04:32:35.000Z,12.86
2022-11-16T04:37:35.000Z,11.87
2022-11-16T04:42:35.000Z,11.94
2022-11-16T04:47:35.000Z,11.94
2022-11-16T04:52:35.000Z,12.27
2022-11-16T04:57:34.000Z,11.51
2022-11-16T05:02:35.000Z,12.62
2022-11-16T05:07:35.000Z,13.98
2022-11-16T05:12:34.000Z,14.18
2022-11-16T05:17:35.000Z,13
2022-11-16T05:22:35.000Z,11.86
2022-11-16T05:27:35.000Z,11.7
2022-11-16T05:32:35.000Z,10.83
2022-11-16T05:37:35.000Z,14.69
2022-11-16T05:42:34.000Z,12.45
2022-11-16T05:47:35.000Z,12.61
2022-11-16T05:52:35.000Z,13.72
2022-11-16T05:57:34.000Z,15.49
2022-11-16T06:02:35.000Z,15.49
2022-11-16T06:07:34.000Z,14.69
2022-11-16T06:12:35.000Z,13.63
2022-11-16T06:17:35.000Z,12.09
2022-11-16T06:22:34.000Z,12.28
2022-11-16T06:27:34.000Z,12.24
2022-11-16T06:32:34.000Z,10.85
2022-11-16T06:37:35.000Z,11.39
2022-11-16T06:42:35.000Z,11.7
2022-11-16T06:47:35.000Z,13.22
2022-11-16T06:52:35.000Z,11.81
2022-11-16T06:57:35.000Z,10.72
2022-11-16T07:02:34.000Z,10.72
2022-11-16T07:07:35.000Z,10.74
2022-11-16T07:12:34.000Z,10.8
2022-11-16T07:17:34.000Z,11.47
2022-11-16T07:22:35.000Z,11.09
2022-11-16T07:27:35.000Z,11.18
2022-11-16T07:37:34.000Z,10.93
2022-11-16T07:42:35.000Z,12.01
2022-11-16T07:47:34.000Z,13.33
2022-11-16T07:52:35.000Z,13.28
2022-11-16T07:57:35.000Z,12.91
2022-11-16T08:02:34.000Z,14.54
2022-11-16T08:07:35.000Z,13.18
2022-11-16T08:12:34.000Z,13.88
2022-11-16T08:17:35.000Z,13.58
2022-11-16T08:22:34.000Z,13.87
2022-11-16T08:27:34.000Z,13.87
2022-11-16T08:32:35.000Z,14.08
2022-11-16T08:37:35.000Z,17.27
2022-11-16T08:42:34.000Z,15.88
2022-11-16T08:47:34.000Z,14.07
2022-11-16T08:52:35.000Z,13.55
2022-11-16T08:57:35.000Z,14.12
2022-11-16T09:02:35.000Z,14.83
2022-11-16T09:07:34.000Z,13.6
2022-11-16T09:12:35.000Z,15.13
2022-11-16T09:17:34.000Z,13.31
2022-11-16T09:22:35.000Z,13.04
2022-11-16T09:27:35.000Z,11.37
2022-11-16T09:32:34.000Z,11.05
2022-11-16T09:37:34.000Z,10.99
2022-11-16T09:42:35.000Z,10.99
2022-11-16T09:47:35.000Z,10.84
2022-11-16T09:52:34.000Z,11.45
2022-11-16T10:02:34.000Z,8.08
2022-11-16T10:07:35.000Z,6.9
2022-11-16T10:12:34.000Z,9.38
2022-11-16T10:17:35.000Z,9.51
2022-11-16T10:22:34.000Z,9.51
2022-11-16T10:27:35.000Z,9.45
2022-11-16T10:32:35.000Z,9.25
2022-11-16T10:37:34.000Z,9.22
2022-11-16T10:42:35.000Z,11.59
2022-11-16T10:47:42.000Z,11.1
2022-11-16T10:52:34.000Z,10.09
2022-11-16T10:57:34.000Z,10.19
2022-11-16T11:02:34.000Z,7.46
2022-11-16T11:07:35.000Z,7.68
2022-11-16T11:12:35.000Z,9.23
2022-11-16T11:17:35.000Z,10.26
2022-11-16T11:22:35.000Z,10.52
2022-11-16T11:27:35.000Z,9.59
2022-11-16T11:32:34.000Z,9.02
2022-11-16T11:37:34.000Z,9.02
2022-11-16T11:42:35.000Z,8.36
2022-11-16T11:48:04.000Z,8.51
2022-11-16T11:52:35.000Z,8.56
2022-11-16T11:57:35.000Z,9.37
2022-11-16T12:02:35.000Z,10.41
2022-11-16T12:07:35.000Z,9.5
2022-11-16T12:12:35.000Z,9.98
2022-11-16T12:17:35.000Z,11.82
2022-11-16T12:22:35.000Z,13.27
2022-11-16T12:27:34.000Z,15.15
2022-11-16T12:32:35.000Z,15.96
2022-11-16T12:37:35.000Z,15.78
2022-11-16T12:42:34.000Z,15.74
2022-11-16T12:47:34.000Z,15.54
2022-11-16T12:57:34.000Z,14.71
2022-11-16T13:02:35.000Z,17.91
2022-11-16T13:07:35.000Z,21.64
2022-11-16T13:12:35.000Z,19.2
2022-11-16T13:17:34.000Z,21.18
2022-11-16T13:22:35.000Z,26.81
2022-11-16T13:27:35.000Z,38.61
2022-11-16T13:32:35.000Z,27
2022-11-16T13:37:34.000Z,18.76
2022-11-16T13:42:34.000Z,15.16
2022-11-16T13:47:34.000Z,13.73
2022-11-16T13:52:50.000Z,14.34
2022-11-16T14:02:35.000Z,13.23
2022-11-16T14:07:35.000Z,12.82
2022-11-16T14:12:34.000Z,14.67
2022-11-16T14:22:35.000Z,16.94
2022-11-16T14:27:40.000Z,15.53
2022-11-16T14:32:34.000Z,14.29
2022-11-16T14:37:34.000Z,14.29
2022-11-16T14:47:35.000Z,13.85
2022-11-16T14:52:35.000Z,13.57
2022-11-16T14:57:34.000Z,16.73
2022-11-16T15:02:35.000Z,18.29
2022-11-16T15:07:34.000Z,16.76
2022-11-16T15:17:43.000Z,15.74
2022-11-16T15:22:35.000Z,15.49
2022-11-16T15:27:34.000Z,15.23
2022-11-16T15:32:34.000Z,15.9
2022-11-16T15:37:35.000Z,15.77
2022-11-16T15:42:35.000Z,15.77
2022-11-16T15:47:34.000Z,16.39
2022-11-16T15:52:35.000Z,16.91
2022-11-16T15:57:34.000Z,18.83
2022-11-16T16:02:35.000Z,17.69
2022-11-16T16:07:35.000Z,18.26
2022-11-16T16:12:35.000Z,20.97
2022-11-16T16:17:35.000Z,20.66
2022-11-16T16:22:34.000Z,20.95
2022-11-16T16:27:35.000Z,20.53
2022-11-16T16:32:35.000Z,19.18
2022-11-16T16:37:34.000Z,19.73
2022-11-16T16:42:35.000Z,18.99
2022-11-16T16:47:35.000Z,18.47
2022-11-16T16:52:34.000Z,18.28
2022-11-16T16:57:35.000Z,18.28
2022-11-16T17:02:35.000Z,17.49
2022-11-16T17:07:34.000Z,16.74
2022-11-16T17:12:34.000Z,18.45
2022-11-16T17:17:35.000Z,19.29
2022-11-16T17:22:35.000Z,20.79
2022-11-16T17:27:35.000Z,20.17
2022-11-16T17:32:35.000Z,19.2
2022-11-16T17:37:34.000Z,19.89
2022-11-16T17:42:34.000Z,20.66
2022-11-16T17:47:35.000Z,20.68
2022-11-16T17:52:34.000Z,20.88
2022-11-16T17:57:35.000Z,21.61
2022-11-16T18:02:35.000Z,21.36
2022-11-16T18:07:35.000Z,21.57
2022-11-16T18:12:35.000Z,21.57
2022-11-16T18:17:35.000Z,21.39
2022-11-16T18:22:35.000Z,23.73
2022-11-16T18:27:35.000Z,24.7
2022-11-16T18:32:35.000Z,25.73
2022-11-16T18:37:35.000Z,27.31
2022-11-16T18:42:34.000Z,27.68
2022-11-16T18:47:35.000Z,27.58
2022-11-16T18:52:34.000Z,24.63
2022-11-16T18:57:34.000Z,23.85
2022-11-16T19:02:34.000Z,22.75
2022-11-16T19:07:34.000Z,22.83
2022-11-16T19:12:35.000Z,23.22
2022-11-16T19:17:34.000Z,24
2022-11-16T19:27:35.000Z,23.77
2022-11-16T19:32:35.000Z,24.88
2022-11-16T19:37:34.000Z,25.43
2022-11-16T19:42:35.000Z,26.78
2022-11-16T19:47:35.000Z,28.28
2022-11-16T19:52:35.000Z,28.28
2022-11-16T19:57:34.000Z,27.52
2022-11-16T20:02:34.000Z,28.15
2022-11-16T20:07:35.000Z,28.84
2022-11-16T20:12:34.000Z,29.07
2022-11-16T20:17:34.000Z,29.7
2022-11-16T20:22:35.000Z,29.85
2022-11-16T20:27:34.000Z,30.06
2022-11-16T20:32:35.000Z,29.98
2022-11-16T20:37:34.000Z,30.29
2022-11-16T20:42:35.000Z,30.44
2022-11-16T20:47:35.000Z,30.15
2022-11-16T20:52:34.000Z,30.79
2022-11-16T20:57:35.000Z,30.81
2022-11-16T21:02:35.000Z,31.04
2022-11-16T21:07:34.000Z,31.04
2022-11-16T21:12:34.000Z,31.64
2022-11-16T21:17:35.000Z,31.69
2022-11-16T21:22:42.000Z,32.41
2022-11-16T21:32:35.000Z,32.93
2022-11-16T21:37:34.000Z,33.82
2022-11-16T21:42:35.000Z,33.73
2022-11-16T21:47:35.000Z,38.02
2022-11-16T21:57:35.000Z,40.16
2022-11-16T22:02:34.000Z,37.33
2022-11-16T22:07:34.000Z,35.53
2022-11-16T22:12:35.000Z,34.12
2022-11-16T22:17:34.000Z,34.78
2022-11-16T22:22:34.000Z,36.11
2022-11-16T22:27:35.000Z,36.93
2022-11-16T22:32:35.000Z,36.71
2022-11-16T22:37:34.000Z,35.27
2022-11-16T22:47:35.000Z,35.36
2022-11-16T22:52:35.000Z,30.89
2022-11-16T22:57:34.000Z,30.89
2022-11-16T23:02:35.000Z,31.6
2022-11-16T23:07:35.000Z,33.71
2022-11-16T23:12:35.000Z,35.41
2022-11-16T23:17:35.000Z,35.65
2022-11-16T23:22:34.000Z,33.95
2022-11-16T23:27:35.000Z,31.54
2022-11-16T23:32:34.000Z,26.72
2022-11-16T23:37:35.000Z,28.16
2022-11-16T23:42:35.000Z,28.67
2022-11-16T23:47:35.000Z,29.63
2022-11-16T23:52:34.000Z,29.69
2022-11-16T23:57:35.000Z,28.63
